Startpagina
METAR-TAF:

METAR-TAF

Vliegvelden :

Luchthaven Ouagadougou Internationaal

Ouagadougou, Burkina Faso

breedte: 12-21N, lengte: 001-31W, hoogte: 316 m

Actueel weer

Dit bericht is 1 uur en het 7 minuten geleden gemaakt, om 04:00 UTC
Wind 4 kt uit het westzuidwesten
Temperatuur 26°C
Vochtigheid 74%
Druk 1011 hPa
Zicht 10 km of meer
geen wolken onder 1500 m en geen cumulonimbus

METAR: DFFD 190400Z 24004KT CAVOK 26/21 Q1011 NOSIG

Tijdstip: 05:07 (05:07 UTC)

Verwachting

Dit bericht is 6 uur en het 7 minuten geleden gemaakt, om 23:00 UTC
Verwachting geldig van 19 om 00 UTC tot 20 om 06 UTC
Wind 8 kt uit het westzuidwesten
Zicht 10 km of meer
Verspreide wolken op 2000 ft
Tijdelijke
van 19 om 15 UTC tot 19 om 22 UTC
Zicht: 4000 m
Verspreide wolken op 2000 ft
Verspreide wolken op 3300 ft, Cumulonimbus.
onweer, regen

TAF: DFFD 182300Z 1900/2006 24008KT 9999 SCT020 TEMPO 1915/1922 4000 TSRA SCT020 SCT033CB

Waarnemingen en weersverwachtingen van meer dan 4000 vliegvelden (METAR en TAF).

De beschikbare stations zijn de gele en rode punten op de kaart.

Ga met uw muis naar het station om de naam te zien.

Klik dan om waarnemingen en weersverwachtingen te zien.

kaart wijzigen: klik op de groene knoppen met een zwart kruis om in te zoomen, op de groene knop met een streepje om uit te zoomen of op de groene pijlen voor aangrenzende kaarten.


METAR-TAF: